sensor_id;sensor_type;location;lat;lon;timestamp;pressure;altitude;pressure_sealevel;temperature;humidity
56689;BME280;42565;53.342;-1.534;2024-01-15T00:00:16;98330.09;;;1.93;43.60
56689;BME280;42565;53.342;-1.534;2024-01-15T00:02:44;98333.49;;;1.40;44.47
56689;BME280;42565;53.342;-1.534;2024-01-15T00:05:11;98337.18;;;1.85;44.43
56689;BME280;42565;53.342;-1.534;2024-01-15T00:07:37;98335.12;;;1.78;44.49
56689;BME280;42565;53.342;-1.534;2024-01-15T00:10:05;98329.95;;;1.36;45.09
56689;BME280;42565;53.342;-1.534;2024-01-15T00:12:32;98331.80;;;1.64;44.91
56689;BME280;42565;53.342;-1.534;2024-01-15T00:14:59;98330.63;;;1.47;44.91
56689;BME280;42565;53.342;-1.534;2024-01-15T00:17:27;98333.98;;;1.65;45.15
56689;BME280;42565;53.342;-1.534;2024-01-15T00:19:53;98327.82;;;1.28;45.40
56689;BME280;42565;53.342;-1.534;2024-01-15T00:22:20;98321.51;;;1.32;46.01
56689;BME280;42565;53.342;-1.534;2024-01-15T00:24:47;98322.66;;;1.22;45.45
56689;BME280;42565;53.342;-1.534;2024-01-15T00:27:14;98326.95;;;1.43;46.44
56689;BME280;42565;53.342;-1.534;2024-01-15T00:29:41;98322.24;;;1.28;46.27
56689;BME280;42565;53.342;-1.534;2024-01-15T00:32:08;98321.36;;;1.28;47.00
56689;BME280;42565;53.342;-1.534;2024-01-15T00:34:35;98316.90;;;1.54;46.19
56689;BME280;42565;53.342;-1.534;2024-01-15T00:37:02;98315.47;;;0.92;47.42
56689;BME280;42565;53.342;-1.534;2024-01-15T00:39:29;98310.94;;;0.66;47.21
56689;BME280;42565;53.342;-1.534;2024-01-15T00:41:56;98310.31;;;1.00;47.06
56689;BME280;42565;53.342;-1.534;2024-01-15T00:44:23;98304.12;;;1.59;46.35
56689;BME280;42565;53.342;-1.534;2024-01-15T00:46:49;98302.72;;;1.08;46.23
56689;BME280;42565;53.342;-1.534;2024-01-15T00:49:16;98298.82;;;1.37;45.89
56689;BME280;42565;53.342;-1.534;2024-01-15T00:51:43;98297.55;;;1.29;46.61
56689;BME280;42565;53.342;-1.534;2024-01-15T00:54:10;98295.56;;;1.03;46.59
56689;BME280;42565;53.342;-1.534;2024-01-15T00:56:37;98296.25;;;1.20;46.16
56689;BME280;42565;53.342;-1.534;2024-01-15T00:59:04;98294.44;;;1.75;45.44
56689;BME280;42565;53.342;-1.534;2024-01-15T01:01:31;98290.72;;;0.84;46.48
56689;BME280;42565;53.342;-1.534;2024-01-15T01:03:58;98286.82;;;0.84;46.84
56689;BME280;42565;53.342;-1.534;2024-01-15T01:06:25;98280.73;;;0.99;46.08
56689;BME280;42565;53.342;-1.534;2024-01-15T01:08:52;98280.19;;;1.01;46.11
56689;BME280;42565;53.342;-1.534;2024-01-15T01:11:18;98279.36;;;1.00;46.29
56689;BME280;42565;53.342;-1.534;2024-01-15T01:13:45;98283.45;;;1.27;45.79
56689;BME280;42565;53.342;-1.534;2024-01-15T01:16:12;98283.00;;;1.07;45.96
56689;BME280;42565;53.342;-1.534;2024-01-15T01:18:39;98278.96;;;0.83;45.82
56689;BME280;42565;53.342;-1.534;2024-01-15T01:21:07;98284.18;;;1.23;45.40
56689;BME280;42565;53.342;-1.534;2024-01-15T01:23:34;98285.89;;;0.75;46.04
56689;BME280;42565;53.342;-1.534;2024-01-15T01:26:00;98291.68;;;0.40;46.49
56689;BME280;42565;53.342;-1.534;2024-01-15T01:28:28;98285.64;;;1.21;46.11
56689;BME280;42565;53.342;-1.534;2024-01-15T01:30:55;98278.79;;;1.28;44.95
56689;BME280;42565;53.342;-1.534;2024-01-15T01:33:22;98277.39;;;0.99;45.09
56689;BME280;42565;53.342;-1.534;2024-01-15T01:35:49;98278.10;;;1.02;44.82
56689;BME280;42565;53.342;-1.534;2024-01-15T01:38:15;98279.31;;;1.02;45.16
56689;BME280;42565;53.342;-1.534;2024-01-15T01:40:42;98270.95;;;1.43;44.61
56689;BME280;42565;53.342;-1.534;2024-01-15T01:43:09;98265.48;;;1.50;43.75
56689;BME280;42565;53.342;-1.534;2024-01-15T01:45:37;98260.59;;;1.42;43.73
56689;BME280;42565;53.342;-1.534;2024-01-15T01:48:05;98258.46;;;1.50;43.88
56689;BME280;42565;53.342;-1.534;2024-01-15T01:50:32;98263.95;;;1.37;43.56
56689;BME280;42565;53.342;-1.534;2024-01-15T01:53:00;98270.91;;;1.55;43.55
56689;BME280;42565;53.342;-1.534;2024-01-15T01:55:29;98268.25;;;1.06;43.53
56689;BME280;42565;53.342;-1.534;2024-01-15T01:57:58;98261.18;;;0.97;44.12
56689;BME280;42565;53.342;-1.534;2024-01-15T02:00:25;98260.10;;;0.86;44.83
56689;BME280;42565;53.342;-1.534;2024-01-15T02:02:52;98267.42;;;0.55;45.13
56689;BME280;42565;53.342;-1.534;2024-01-15T02:05:19;98264.54;;;0.71;45.90
56689;BME280;42565;53.342;-1.534;2024-01-15T02:07:46;98261.88;;;0.40;46.12
56689;BME280;42565;53.342;-1.534;2024-01-15T02:10:13;98267.92;;;0.90;45.32
56689;BME280;42565;53.342;-1.534;2024-01-15T02:12:42;98256.19;;;0.47;45.97
56689;BME280;42565;53.342;-1.534;2024-01-15T02:15:09;98266.19;;;0.29;45.85
56689;BME280;42565;53.342;-1.534;2024-01-15T02:17:56;98256.73;;;0.67;45.10
56689;BME280;42565;53.342;-1.534;2024-01-15T02:20:24;98248.54;;;1.13;44.70
56689;BME280;42565;53.342;-1.534;2024-01-15T02:22:51;98249.69;;;0.62;44.34
56689;BME280;42565;53.342;-1.534;2024-01-15T02:25:18;98245.36;;;0.57;44.26
56689;BME280;42565;53.342;-1.534;2024-01-15T02:27:46;98249.40;;;0.60;44.31
56689;BME280;42565;53.342;-1.534;2024-01-15T02:30:13;98249.92;;;0.38;45.01
56689;BME280;42565;53.342;-1.534;2024-01-15T02:32:41;98251.12;;;0.48;45.23
56689;BME280;42565;53.342;-1.534;2024-01-15T02:35:08;98255.35;;;0.30;44.94
56689;BME280;42565;53.342;-1.534;2024-01-15T02:37:36;98262.76;;;0.52;44.79
56689;BME280;42565;53.342;-1.534;2024-01-15T02:40:03;98261.22;;;0.82;44.37
56689;BME280;42565;53.342;-1.534;2024-01-15T02:42:30;98257.06;;;0.51;44.94
56689;BME280;42565;53.342;-1.534;2024-01-15T02:44:57;98257.88;;;-0.01;45.42
56689;BME280;42565;53.342;-1.534;2024-01-15T02:47:24;98263.41;;;0.43;45.63
56689;BME280;42565;53.342;-1.534;2024-01-15T02:49:51;98267.49;;;0.08;45.60
56689;BME280;42565;53.342;-1.534;2024-01-15T02:52:18;98262.76;;;0.20;45.75
56689;BME280;42565;53.342;-1.534;2024-01-15T02:54:45;98257.43;;;0.26;45.64
56689;BME280;42565;53.342;-1.534;2024-01-15T02:57:12;98249.22;;;0.61;44.78
56689;BME280;42565;53.342;-1.534;2024-01-15T02:59:39;98251.96;;;0.66;44.47
56689;BME280;42565;53.342;-1.534;2024-01-15T03:02:06;98246.34;;;0.78;44.56
56689;BME280;42565;53.342;-1.534;2024-01-15T03:04:33;98248.27;;;0.70;44.49
56689;BME280;42565;53.342;-1.534;2024-01-15T03:06:59;98246.09;;;0.29;45.23
56689;BME280;42565;53.342;-1.534;2024-01-15T03:09:26;98246.23;;;0.64;44.87
56689;BME280;42565;53.342;-1.534;2024-01-15T03:11:53;98248.44;;;-0.14;46.43
56689;BME280;42565;53.342;-1.534;2024-01-15T03:14:20;98245.80;;;0.26;45.67
56689;BME280;42565;53.342;-1.534;2024-01-15T03:16:47;98245.69;;;0.02;45.86
56689;BME280;42565;53.342;-1.534;2024-01-15T03:19:14;98250.30;;;-0.02;45.77
56689;BME280;42565;53.342;-1.534;2024-01-15T03:21:41;98247.50;;;0.20;45.51
56689;BME280;42565;53.342;-1.534;2024-01-15T03:24:08;98243.40;;;0.27;45.06
56689;BME280;42565;53.342;-1.534;2024-01-15T03:26:35;98246.64;;;0.38;44.72
56689;BME280;42565;53.342;-1.534;2024-01-15T03:29:02;98243.66;;;0.39;45.19
56689;BME280;42565;53.342;-1.534;2024-01-15T03:31:30;98242.11;;;0.40;44.56
56689;BME280;42565;53.342;-1.534;2024-01-15T03:33:56;98242.45;;;0.32;44.60
56689;BME280;42565;53.342;-1.534;2024-01-15T03:36:23;98242.00;;;0.31;44.64
56689;BME280;42565;53.342;-1.534;2024-01-15T03:38:50;98241.09;;;0.41;44.49
56689;BME280;42565;53.342;-1.534;2024-01-15T03:41:17;98233.25;;;0.81;44.11
56689;BME280;42565;53.342;-1.534;2024-01-15T03:43:44;98229.79;;;0.63;44.00
56689;BME280;42565;53.342;-1.534;2024-01-15T03:46:11;98230.46;;;0.50;43.95
56689;BME280;42565;53.342;-1.534;2024-01-15T03:48:37;98219.64;;;0.95;43.01
56689;BME280;42565;53.342;-1.534;2024-01-15T03:51:05;98216.34;;;0.28;43.76
56689;BME280;42565;53.342;-1.534;2024-01-15T03:53:32;98212.58;;;0.41;44.16
56689;BME280;42565;53.342;-1.534;2024-01-15T03:55:59;98215.26;;;0.42;44.09
56689;BME280;42565;53.342;-1.534;2024-01-15T03:58:26;98210.30;;;0.75;43.30
56689;BME280;42565;53.342;-1.534;2024-01-15T04:00:52;98211.31;;;0.79;42.82
56689;BME280;42565;53.342;-1.534;2024-01-15T04:03:19;98219.38;;;0.87;43.21
56689;BME280;42565;53.342;-1.534;2024-01-15T04:05:46;98220.16;;;0.73;42.66
56689;BME280;42565;53.342;-1.534;2024-01-15T04:08:13;98217.05;;;0.83;43.04
56689;BME280;42565;53.342;-1.534;2024-01-15T04:10:40;98222.65;;;0.57;42.68
56689;BME280;42565;53.342;-1.534;2024-01-15T04:13:07;98219.12;;;0.95;42.54
56689;BME280;42565;53.342;-1.534;2024-01-15T04:15:34;98213.09;;;0.92;43.13
56689;BME280;42565;53.342;-1.534;2024-01-15T04:18:02;98206.16;;;0.72;43.04
56689;BME280;42565;53.342;-1.534;2024-01-15T04:20:30;98208.82;;;0.39;43.00
56689;BME280;42565;53.342;-1.534;2024-01-15T04:22:56;98215.15;;;1.26;42.76
56689;BME280;42565;53.342;-1.534;2024-01-15T04:25:23;98212.01;;;1.07;43.04
56689;BME280;42565;53.342;-1.534;2024-01-15T04:27:50;98209.77;;;0.59;43.27
56689;BME280;42565;53.342;-1.534;2024-01-15T04:30:17;98207.50;;;0.61;43.65
56689;BME280;42565;53.342;-1.534;2024-01-15T04:32:44;98210.93;;;0.82;42.86
56689;BME280;42565;53.342;-1.534;2024-01-15T04:35:11;98208.55;;;0.88;42.60
56689;BME280;42565;53.342;-1.534;2024-01-15T04:37:39;98205.12;;;0.68;43.15
56689;BME280;42565;53.342;-1.534;2024-01-15T04:40:07;98206.38;;;0.28;43.38
56689;BME280;42565;53.342;-1.534;2024-01-15T04:42:35;98207.22;;;0.19;43.91
56689;BME280;42565;53.342;-1.534;2024-01-15T04:45:02;98204.43;;;0.51;43.29
56689;BME280;42565;53.342;-1.534;2024-01-15T04:47:29;98214.36;;;0.27;42.70
56689;BME280;42565;53.342;-1.534;2024-01-15T04:49:56;98219.61;;;-0.16;43.26
56689;BME280;42565;53.342;-1.534;2024-01-15T04:52:23;98209.04;;;0.25;42.63
56689;BME280;42565;53.342;-1.534;2024-01-15T04:54:50;98212.85;;;0.55;43.12
56689;BME280;42565;53.342;-1.534;2024-01-15T04:57:16;98210.31;;;0.59;42.59
56689;BME280;42565;53.342;-1.534;2024-01-15T04:59:43;98212.55;;;1.03;42.40
56689;BME280;42565;53.342;-1.534;2024-01-15T05:02:10;98206.58;;;0.61;42.86
56689;BME280;42565;53.342;-1.534;2024-01-15T05:04:37;98211.08;;;0.31;43.45
56689;BME280;42565;53.342;-1.534;2024-01-15T05:07:04;98197.46;;;0.40;43.61
56689;BME280;42565;53.342;-1.534;2024-01-15T05:09:31;98204.14;;;0.29;43.61
56689;BME280;42565;53.342;-1.534;2024-01-15T05:11:57;98204.67;;;0.59;43.35
56689;BME280;42565;53.342;-1.534;2024-01-15T05:14:24;98209.70;;;0.18;44.56
56689;BME280;42565;53.342;-1.534;2024-01-15T05:16:51;98209.47;;;0.39;44.71
56689;BME280;42565;53.342;-1.534;2024-01-15T05:19:18;98213.86;;;0.88;44.41
56689;BME280;42565;53.342;-1.534;2024-01-15T05:21:45;98211.99;;;0.65;44.17
56689;BME280;42565;53.342;-1.534;2024-01-15T05:24:12;98208.87;;;0.85;44.26
56689;BME280;42565;53.342;-1.534;2024-01-15T05:26:38;98211.85;;;1.16;43.87
56689;BME280;42565;53.342;-1.534;2024-01-15T05:29:05;98216.35;;;0.41;44.35
56689;BME280;42565;53.342;-1.534;2024-01-15T05:31:33;98215.78;;;0.52;44.51
56689;BME280;42565;53.342;-1.534;2024-01-15T05:34:00;98214.15;;;0.78;44.85
56689;BME280;42565;53.342;-1.534;2024-01-15T05:36:27;98220.42;;;1.07;44.25
56689;BME280;42565;53.342;-1.534;2024-01-15T05:38:53;98221.25;;;0.70;44.26
56689;BME280;42565;53.342;-1.534;2024-01-15T05:41:20;98221.97;;;1.04;43.59
56689;BME280;42565;53.342;-1.534;2024-01-15T05:43:47;98219.58;;;0.49;43.49
56689;BME280;42565;53.342;-1.534;2024-01-15T05:46:14;98219.60;;;0.88;42.62
56689;BME280;42565;53.342;-1.534;2024-01-15T05:48:41;98224.88;;;1.11;42.25
56689;BME280;42565;53.342;-1.534;2024-01-15T05:51:08;98227.21;;;1.02;42.29
56689;BME280;42565;53.342;-1.534;2024-01-15T05:53:36;98230.98;;;1.20;41.86
56689;BME280;42565;53.342;-1.534;2024-01-15T05:56:03;98224.62;;;0.91;41.71
56689;BME280;42565;53.342;-1.534;2024-01-15T05:58:31;98229.82;;;0.92;41.78
56689;BME280;42565;53.342;-1.534;2024-01-15T06:00:57;98228.69;;;0.81;42.38
56689;BME280;42565;53.342;-1.534;2024-01-15T06:03:24;98225.77;;;0.70;42.86
56689;BME280;42565;53.342;-1.534;2024-01-15T06:05:51;98230.27;;;1.02;42.12
56689;BME280;42565;53.342;-1.534;2024-01-15T06:08:18;98222.56;;;0.63;42.37
56689;BME280;42565;53.342;-1.534;2024-01-15T06:10:45;98224.01;;;0.19;43.37
56689;BME280;42565;53.342;-1.534;2024-01-15T06:13:12;98226.67;;;0.28;43.95
56689;BME280;42565;53.342;-1.534;2024-01-15T06:15:38;98217.96;;;0.97;43.45
56689;BME280;42565;53.342;-1.534;2024-01-15T06:18:06;98217.23;;;0.44;43.53
56689;BME280;42565;53.342;-1.534;2024-01-15T06:20:33;98213.24;;;0.44;43.55
56689;BME280;42565;53.342;-1.534;2024-01-15T06:23:00;98219.17;;;0.48;43.83
56689;BME280;42565;53.342;-1.534;2024-01-15T06:25:27;98222.50;;;0.48;44.41
56689;BME280;42565;53.342;-1.534;2024-01-15T06:27:53;98222.75;;;0.70;44.11
56689;BME280;42565;53.342;-1.534;2024-01-15T06:30:20;98234.77;;;0.55;44.36
56689;BME280;42565;53.342;-1.534;2024-01-15T06:32:47;98237.19;;;0.39;44.28
56689;BME280;42565;53.342;-1.534;2024-01-15T06:35:14;98241.03;;;0.93;44.28
56689;BME280;42565;53.342;-1.534;2024-01-15T06:37:41;98244.54;;;0.23;45.38
56689;BME280;42565;53.342;-1.534;2024-01-15T06:40:09;98253.76;;;0.21;45.22
56689;BME280;42565;53.342;-1.534;2024-01-15T06:42:36;98260.32;;;-0.70;46.94
56689;BME280;42565;53.342;-1.534;2024-01-15T06:45:04;98258.33;;;-0.88;47.25
56689;BME280;42565;53.342;-1.534;2024-01-15T06:47:32;98263.01;;;-0.26;46.87
56689;BME280;42565;53.342;-1.534;2024-01-15T06:49:58;98268.19;;;0.17;46.50
56689;BME280;42565;53.342;-1.534;2024-01-15T06:52:25;98264.82;;;0.20;46.18
56689;BME280;42565;53.342;-1.534;2024-01-15T06:54:52;98263.51;;;0.18;45.86
56689;BME280;42565;53.342;-1.534;2024-01-15T06:57:19;98261.29;;;0.07;45.89
56689;BME280;42565;53.342;-1.534;2024-01-15T06:59:46;98259.63;;;0.50;45.29
56689;BME280;42565;53.342;-1.534;2024-01-15T07:02:13;98256.03;;;0.40;45.26
56689;BME280;42565;53.342;-1.534;2024-01-15T07:04:40;98258.29;;;0.02;45.73
56689;BME280;42565;53.342;-1.534;2024-01-15T07:07:07;98258.28;;;-0.34;46.21
56689;BME280;42565;53.342;-1.534;2024-01-15T07:09:34;98256.27;;;0.31;46.60
56689;BME280;42565;53.342;-1.534;2024-01-15T07:12:01;98252.50;;;0.21;46.00
56689;BME280;42565;53.342;-1.534;2024-01-15T07:14:28;98261.25;;;0.00;45.50
56689;BME280;42565;53.342;-1.534;2024-01-15T07:16:54;98271.66;;;-0.43;46.12
56689;BME280;42565;53.342;-1.534;2024-01-15T07:19:21;98279.83;;;0.25;45.60
56689;BME280;42565;53.342;-1.534;2024-01-15T07:21:48;98286.62;;;0.07;45.84
56689;BME280;42565;53.342;-1.534;2024-01-15T07:24:15;98289.79;;;-0.05;45.60
56689;BME280;42565;53.342;-1.534;2024-01-15T07:26:42;98290.77;;;0.33;44.82
56689;BME280;42565;53.342;-1.534;2024-01-15T07:29:09;98289.59;;;0.53;44.40
56689;BME280;42565;53.342;-1.534;2024-01-15T07:31:35;98291.61;;;0.18;45.32
56689;BME280;42565;53.342;-1.534;2024-01-15T07:34:03;98296.94;;;0.55;44.60
56689;BME280;42565;53.342;-1.534;2024-01-15T07:36:30;98292.89;;;0.04;44.63
56689;BME280;42565;53.342;-1.534;2024-01-15T07:38:57;98297.27;;;-0.18;45.58
56689;BME280;42565;53.342;-1.534;2024-01-15T07:41:24;98299.13;;;-0.02;45.49
56689;BME280;42565;53.342;-1.534;2024-01-15T07:43:50;98303.45;;;-0.56;46.42
56689;BME280;42565;53.342;-1.534;2024-01-15T07:46:17;98310.66;;;-0.15;46.06
56689;BME280;42565;53.342;-1.534;2024-01-15T07:48:44;98310.38;;;-0.10;45.73
56689;BME280;42565;53.342;-1.534;2024-01-15T07:51:11;98309.39;;;-0.05;45.25
56689;BME280;42565;53.342;-1.534;2024-01-15T07:53:38;98312.44;;;0.11;45.13
56689;BME280;42565;53.342;-1.534;2024-01-15T07:56:05;98315.23;;;0.32;44.67
56689;BME280;42565;53.342;-1.534;2024-01-15T07:58:32;98314.41;;;-0.19;45.51
56689;BME280;42565;53.342;-1.534;2024-01-15T08:00:59;98317.62;;;-0.34;45.64
56689;BME280;42565;53.342;-1.534;2024-01-15T08:03:26;98315.09;;;0.25;45.32
56689;BME280;42565;53.342;-1.534;2024-01-15T08:05:53;98315.46;;;-0.09;45.10
56689;BME280;42565;53.342;-1.534;2024-01-15T08:08:21;98313.71;;;0.02;45.61
56689;BME280;42565;53.342;-1.534;2024-01-15T08:10:49;98310.85;;;-0.40;45.56
56689;BME280;42565;53.342;-1.534;2024-01-15T08:13:16;98313.26;;;-0.00;45.21
56689;BME280;42565;53.342;-1.534;2024-01-15T08:15:43;98320.19;;;-0.38;46.02
56689;BME280;42565;53.342;-1.534;2024-01-15T08:18:10;98318.14;;;-0.40;46.11
56689;BME280;42565;53.342;-1.534;2024-01-15T08:20:37;98313.36;;;0.43;45.44
56689;BME280;42565;53.342;-1.534;2024-01-15T08:23:04;98320.41;;;-0.29;45.70
56689;BME280;42565;53.342;-1.534;2024-01-15T08:25:31;98326.37;;;0.25;45.10
56689;BME280;42565;53.342;-1.534;2024-01-15T08:27:58;98324.69;;;0.05;44.38
56689;BME280;42565;53.342;-1.534;2024-01-15T08:30:25;98322.78;;;0.33;44.18
56689;BME280;42565;53.342;-1.534;2024-01-15T08:32:52;98331.62;;;0.42;44.04
56689;BME280;42565;53.342;-1.534;2024-01-15T08:35:19;98338.40;;;0.45;43.84
56689;BME280;42565;53.342;-1.534;2024-01-15T08:37:45;98347.36;;;0.21;43.86
56689;BME280;42565;53.342;-1.534;2024-01-15T08:40:12;98355.90;;;0.24;44.47
56689;BME280;42565;53.342;-1.534;2024-01-15T08:42:39;98361.04;;;0.53;44.00
56689;BME280;42565;53.342;-1.534;2024-01-15T08:45:06;98365.97;;;0.53;44.06
56689;BME280;42565;53.342;-1.534;2024-01-15T08:47:34;98373.06;;;0.70;43.02
56689;BME280;42565;53.342;-1.534;2024-01-15T08:50:02;98375.94;;;0.43;44.12
56689;BME280;42565;53.342;-1.534;2024-01-15T08:52:30;98373.51;;;0.74;43.31
56689;BME280;42565;53.342;-1.534;2024-01-15T08:54:57;98380.30;;;1.12;42.86
56689;BME280;42565;53.342;-1.534;2024-01-15T08:57:23;98375.29;;;1.33;42.27
56689;BME280;42565;53.342;-1.534;2024-01-15T08:59:50;98374.51;;;2.21;40.47
56689;BME280;42565;53.342;-1.534;2024-01-15T09:02:17;98380.43;;;3.18;38.02
56689;BME280;42565;53.342;-1.534;2024-01-15T09:04:44;98376.62;;;3.76;35.77
56689;BME280;42565;53.342;-1.534;2024-01-15T09:07:11;98377.87;;;5.60;33.95
56689;BME280;42565;53.342;-1.534;2024-01-15T09:09:37;98371.60;;;6.07;32.66
56689;BME280;42565;53.342;-1.534;2024-01-15T09:12:05;98371.70;;;6.88;31.26
56689;BME280;42565;53.342;-1.534;2024-01-15T09:14:32;98368.87;;;6.79;30.58
56689;BME280;42565;53.342;-1.534;2024-01-15T09:16:58;98375.33;;;8.20;29.78
56689;BME280;42565;53.342;-1.534;2024-01-15T09:19:25;98370.29;;;7.41;30.01
56689;BME280;42565;53.342;-1.534;2024-01-15T09:21:52;98374.54;;;7.63;29.50
56689;BME280;42565;53.342;-1.534;2024-01-15T09:24:18;98376.36;;;7.67;29.57
56689;BME280;42565;53.342;-1.534;2024-01-15T09:26:45;98374.47;;;7.17;29.47
56689;BME280;42565;53.342;-1.534;2024-01-15T09:29:12;98375.65;;;8.19;28.57
56689;BME280;42565;53.342;-1.534;2024-01-15T09:31:38;98381.63;;;7.72;29.08
56689;BME280;42565;53.342;-1.534;2024-01-15T09:34:05;98380.31;;;7.36;29.15
56689;BME280;42565;53.342;-1.534;2024-01-15T09:36:32;98385.06;;;7.52;29.03
56689;BME280;42565;53.342;-1.534;2024-01-15T09:38:59;98378.04;;;7.03;29.53
56689;BME280;42565;53.342;-1.534;2024-01-15T09:41:26;98385.47;;;8.11;28.88
56689;BME280;42565;53.342;-1.534;2024-01-15T09:43:54;98378.33;;;7.95;28.07
56689;BME280;42565;53.342;-1.534;2024-01-15T09:46:21;98381.34;;;7.60;28.59
56689;BME280;42565;53.342;-1.534;2024-01-15T09:48:49;98385.63;;;7.82;29.02
56689;BME280;42565;53.342;-1.534;2024-01-15T09:51:16;98373.80;;;7.09;28.99
56689;BME280;42565;53.342;-1.534;2024-01-15T09:53:44;98387.33;;;6.76;29.42
56689;BME280;42565;53.342;-1.534;2024-01-15T09:56:13;98392.96;;;7.31;28.80
56689;BME280;42565;53.342;-1.534;2024-01-15T09:58:40;98394.41;;;8.06;28.35
56689;BME280;42565;53.342;-1.534;2024-01-15T10:01:08;98392.25;;;7.35;28.21
56689;BME280;42565;53.342;-1.534;2024-01-15T10:03:35;98400.82;;;6.56;29.67
56689;BME280;42565;53.342;-1.534;2024-01-15T10:06:03;98404.43;;;7.11;28.89
56689;BME280;42565;53.342;-1.534;2024-01-15T10:08:31;98404.07;;;7.85;28.40
56689;BME280;42565;53.342;-1.534;2024-01-15T10:10:59;98408.74;;;7.93;28.16
56689;BME280;42565;53.342;-1.534;2024-01-15T10:13:25;98410.85;;;7.62;27.80
56689;BME280;42565;53.342;-1.534;2024-01-15T10:15:53;98416.90;;;7.54;28.31
56689;BME280;42565;53.342;-1.534;2024-01-15T10:18:20;98417.75;;;8.25;28.16
56689;BME280;42565;53.342;-1.534;2024-01-15T10:20:47;98418.33;;;7.65;27.90
56689;BME280;42565;53.342;-1.534;2024-01-15T10:23:15;98416.64;;;7.91;27.85
56689;BME280;42565;53.342;-1.534;2024-01-15T10:25:42;98423.78;;;7.83;27.39
56689;BME280;42565;53.342;-1.534;2024-01-15T10:28:09;98418.64;;;7.55;27.92
56689;BME280;42565;53.342;-1.534;2024-01-15T10:30:36;98425.51;;;7.24;28.15
56689;BME280;42565;53.342;-1.534;2024-01-15T10:33:03;98428.19;;;6.87;28.59
56689;BME280;42565;53.342;-1.534;2024-01-15T11:27:40;98434.49;;;6.79;29.39
56689;BME280;42565;53.342;-1.534;2024-01-15T11:30:09;98428.80;;;6.44;28.74
56689;BME280;42565;53.342;-1.534;2024-01-15T11:32:37;98423.50;;;6.50;29.41
56689;BME280;42565;53.342;-1.534;2024-01-15T11:35:05;98423.11;;;6.67;28.73
56689;BME280;42565;53.342;-1.534;2024-01-15T11:37:57;98421.94;;;6.92;28.85
56689;BME280;42565;53.342;-1.534;2024-01-15T11:40:37;98423.71;;;6.54;28.70
56689;BME280;42565;53.342;-1.534;2024-01-15T11:43:05;98421.54;;;6.10;29.36
56689;BME280;42565;53.342;-1.534;2024-01-15T11:45:33;98422.52;;;5.88;29.09
56689;BME280;42565;53.342;-1.534;2024-01-15T11:48:10;98419.54;;;6.34;29.12
56689;BME280;42565;53.342;-1.534;2024-01-15T11:50:40;98415.64;;;6.47;28.47
56689;BME280;42565;53.342;-1.534;2024-01-15T11:53:16;98416.18;;;6.34;28.47
56689;BME280;42565;53.342;-1.534;2024-01-15T11:55:45;98418.19;;;6.00;28.86
56689;BME280;42565;53.342;-1.534;2024-01-15T11:58:12;98417.81;;;6.46;29.01
56689;BME280;42565;53.342;-1.534;2024-01-15T12:00:40;98420.87;;;7.03;28.55
56689;BME280;42565;53.342;-1.534;2024-01-15T12:03:09;98421.91;;;6.98;28.16
56689;BME280;42565;53.342;-1.534;2024-01-15T12:05:37;98423.32;;;6.77;28.22
56689;BME280;42565;53.342;-1.534;2024-01-15T12:08:05;98425.27;;;6.23;28.64
56689;BME280;42565;53.342;-1.534;2024-01-15T12:10:32;98427.19;;;6.06;28.92
56689;BME280;42565;53.342;-1.534;2024-01-15T12:12:59;98428.87;;;5.60;29.08
56689;BME280;42565;53.342;-1.534;2024-01-15T12:15:28;98428.40;;;7.20;28.64
56689;BME280;42565;53.342;-1.534;2024-01-15T12:17:56;98424.12;;;6.54;28.33
56689;BME280;42565;53.342;-1.534;2024-01-15T12:20:24;98426.22;;;6.66;28.57
56689;BME280;42565;53.342;-1.534;2024-01-15T12:22:51;98421.74;;;6.76;28.13
56689;BME280;42565;53.342;-1.534;2024-01-15T12:25:19;98424.10;;;7.11;28.02
56689;BME280;42565;53.342;-1.534;2024-01-15T12:27:47;98424.37;;;6.96;27.88
56689;BME280;42565;53.342;-1.534;2024-01-15T12:30:14;98425.94;;;6.77;27.33
56689;BME280;42565;53.342;-1.534;2024-01-15T12:32:42;98427.68;;;7.02;27.59
56689;BME280;42565;53.342;-1.534;2024-01-15T12:35:10;98435.64;;;7.77;27.36
56689;BME280;42565;53.342;-1.534;2024-01-15T12:37:39;98431.36;;;7.02;27.91
56689;BME280;42565;53.342;-1.534;2024-01-15T12:40:08;98435.45;;;7.01;28.25
56689;BME280;42565;53.342;-1.534;2024-01-15T12:42:36;98433.73;;;6.57;29.26
56689;BME280;42565;53.342;-1.534;2024-01-15T12:45:04;98443.65;;;6.19;29.27
56689;BME280;42565;53.342;-1.534;2024-01-15T12:47:32;98427.44;;;5.87;28.88
56689;BME280;42565;53.342;-1.534;2024-01-15T12:50:00;98438.45;;;5.81;29.28
56689;BME280;42565;53.342;-1.534;2024-01-15T12:52:27;98440.03;;;5.95;29.15
56689;BME280;42565;53.342;-1.534;2024-01-15T12:54:54;98447.40;;;5.67;29.01
56689;BME280;42565;53.342;-1.534;2024-01-15T12:57:21;98449.40;;;6.38;29.09
56689;BME280;42565;53.342;-1.534;2024-01-15T12:59:49;98445.93;;;6.85;28.78
56689;BME280;42565;53.342;-1.534;2024-01-15T13:02:16;98445.86;;;6.77;28.67
56689;BME280;42565;53.342;-1.534;2024-01-15T13:04:44;98448.89;;;6.08;28.88
56689;BME280;42565;53.342;-1.534;2024-01-15T13:07:11;98448.84;;;6.51;28.60
56689;BME280;42565;53.342;-1.534;2024-01-15T13:09:37;98445.95;;;6.95;28.33
56689;BME280;42565;53.342;-1.534;2024-01-15T13:12:05;98447.09;;;7.08;28.31
56689;BME280;42565;53.342;-1.534;2024-01-15T13:14:32;98452.33;;;7.23;28.55
56689;BME280;42565;53.342;-1.534;2024-01-15T13:16:59;98456.67;;;6.41;29.13
56689;BME280;42565;53.342;-1.534;2024-01-15T13:19:27;98450.94;;;6.32;28.46
56689;BME280;42565;53.342;-1.534;2024-01-15T13:21:54;98451.65;;;6.38;28.92
56689;BME280;42565;53.342;-1.534;2024-01-15T13:24:21;98452.20;;;6.36;28.75
56689;BME280;42565;53.342;-1.534;2024-01-15T13:26:49;98454.90;;;5.86;29.34
56689;BME280;42565;53.342;-1.534;2024-01-15T13:29:16;98456.10;;;5.76;29.47
56689;BME280;42565;53.342;-1.534;2024-01-15T13:31:42;98456.12;;;5.95;28.83
56689;BME280;42565;53.342;-1.534;2024-01-15T13:34:09;98457.94;;;6.02;28.45
56689;BME280;42565;53.342;-1.534;2024-01-15T13:36:36;98456.18;;;5.36;29.00
56689;BME280;42565;53.342;-1.534;2024-01-15T13:39:02;98460.51;;;5.32;29.90
56689;BME280;42565;53.342;-1.534;2024-01-15T13:41:29;98457.42;;;5.80;29.15
56689;BME280;42565;53.342;-1.534;2024-01-15T13:43:56;98452.26;;;5.86;28.71
56689;BME280;42565;53.342;-1.534;2024-01-15T13:46:24;98452.41;;;5.83;29.17
56689;BME280;42565;53.342;-1.534;2024-01-15T13:48:51;98450.97;;;5.26;29.65
56689;BME280;42565;53.342;-1.534;2024-01-15T13:51:18;98450.48;;;4.99;30.72